sensor_id;sensor_type;location;lat;lon;timestamp;pressure;altitude;pressure_sealevel;temperature;humidity
20350;BME280;10332;50.208;18.988;2023-05-10T00:01:43;98256.53;;;10.76;56.72
20350;BME280;10332;50.208;18.988;2023-05-10T00:04:11;98257.88;;;10.69;56.88
20350;BME280;10332;50.208;18.988;2023-05-10T00:06:39;98249.84;;;10.72;57.33
20350;BME280;10332;50.208;18.988;2023-05-10T00:09:07;98243.47;;;10.63;57.26
20350;BME280;10332;50.208;18.988;2023-05-10T00:11:35;98251.25;;;10.50;57.23
20350;BME280;10332;50.208;18.988;2023-05-10T00:14:02;98243.84;;;10.57;57.61
20350;BME280;10332;50.208;18.988;2023-05-10T00:16:30;98240.41;;;10.57;57.62
20350;BME280;10332;50.208;18.988;2023-05-10T00:19:00;98246.44;;;10.44;57.63
20350;BME280;10332;50.208;18.988;2023-05-10T00:21:28;98237.47;;;10.48;57.28
20350;BME280;10332;50.208;18.988;2023-05-10T00:23:56;98238.41;;;10.60;57.37
20350;BME280;10332;50.208;18.988;2023-05-10T00:26:23;98238.59;;;10.44;57.25
20350;BME280;10332;50.208;18.988;2023-05-10T00:28:51;98237.56;;;10.47;57.61
20350;BME280;10332;50.208;18.988;2023-05-10T00:31:18;98234.13;;;10.46;57.09
20350;BME280;10332;50.208;18.988;2023-05-10T00:33:46;98226.16;;;10.35;57.54
20350;BME280;10332;50.208;18.988;2023-05-10T00:36:13;98231.28;;;10.37;57.71
20350;BME280;10332;50.208;18.988;2023-05-10T00:38:41;98236.03;;;10.30;57.87
20350;BME280;10332;50.208;18.988;2023-05-10T00:41:08;98228.00;;;10.33;58.22
20350;BME280;10332;50.208;18.988;2023-05-10T00:43:36;98231.56;;;10.32;58.15
20350;BME280;10332;50.208;18.988;2023-05-10T00:46:04;98231.78;;;10.29;57.97
20350;BME280;10332;50.208;18.988;2023-05-10T00:48:32;98232.31;;;10.34;57.65
20350;BME280;10332;50.208;18.988;2023-05-10T00:51:01;98229.16;;;10.29;58.02
20350;BME280;10332;50.208;18.988;2023-05-10T00:53:31;98226.53;;;10.29;57.99
20350;BME280;10332;50.208;18.988;2023-05-10T00:55:59;98225.25;;;10.22;57.99
20350;BME280;10332;50.208;18.988;2023-05-10T00:58:28;98219.75;;;10.27;57.92
20350;BME280;10332;50.208;18.988;2023-05-10T01:00:56;98225.09;;;10.25;57.98
20350;BME280;10332;50.208;18.988;2023-05-10T01:03:25;98224.16;;;10.26;57.65
20350;BME280;10332;50.208;18.988;2023-05-10T01:05:52;98226.38;;;10.18;57.72
20350;BME280;10332;50.208;18.988;2023-05-10T01:08:20;98225.09;;;10.25;57.31
20350;BME280;10332;50.208;18.988;2023-05-10T01:10:48;98218.28;;;10.22;57.32
20350;BME280;10332;50.208;18.988;2023-05-10T01:13:38;98218.28;;;10.22;57.54
20350;BME280;10332;50.208;18.988;2023-05-10T01:16:07;98211.56;;;10.18;57.40
20350;BME280;10332;50.208;18.988;2023-05-10T01:18:44;98209.69;;;10.20;57.45
20350;BME280;10332;50.208;18.988;2023-05-10T01:30:11;98205.16;;;10.10;57.60
20350;BME280;10332;50.208;18.988;2023-05-10T01:33:04;98202.00;;;10.05;58.11
20350;BME280;10332;50.208;18.988;2023-05-10T01:38:51;98206.44;;;9.90;59.12
20350;BME280;10332;50.208;18.988;2023-05-10T01:41:44;98205.16;;;9.83;58.63
20350;BME280;10332;50.208;18.988;2023-05-10T01:47:03;98195.09;;;9.77;59.28
20350;BME280;10332;50.208;18.988;2023-05-10T01:49:39;98200.97;;;9.80;59.26
20350;BME280;10332;50.208;18.988;2023-05-10T01:52:12;98191.88;;;9.73;60.04
20350;BME280;10332;50.208;18.988;2023-05-10T01:54:53;98192.03;;;9.70;59.80
20350;BME280;10332;50.208;18.988;2023-05-10T01:57:27;98187.75;;;9.69;60.11
20350;BME280;10332;50.208;18.988;2023-05-10T01:59:59;98194.38;;;9.60;59.96
20350;BME280;10332;50.208;18.988;2023-05-10T02:02:33;98189.09;;;9.62;60.23
20350;BME280;10332;50.208;18.988;2023-05-10T02:05:08;98187.25;;;9.50;60.54
20350;BME280;10332;50.208;18.988;2023-05-10T02:07:37;98185.31;;;9.53;60.47
20350;BME280;10332;50.208;18.988;2023-05-10T02:10:07;98178.63;;;9.35;61.36
20350;BME280;10332;50.208;18.988;2023-05-10T02:12:39;98180.09;;;9.39;61.22
20350;BME280;10332;50.208;18.988;2023-05-10T02:15:10;98173.75;;;9.43;61.38
20350;BME280;10332;50.208;18.988;2023-05-10T02:17:41;98172.38;;;9.37;61.53
20350;BME280;10332;50.208;18.988;2023-05-10T02:20:11;98176.66;;;9.38;61.26
20350;BME280;10332;50.208;18.988;2023-05-10T02:22:41;98174.72;;;9.28;62.23
20350;BME280;10332;50.208;18.988;2023-05-10T02:25:12;98168.84;;;9.38;61.50
20350;BME280;10332;50.208;18.988;2023-05-10T02:27:42;98180.00;;;9.41;61.77
20350;BME280;10332;50.208;18.988;2023-05-10T02:30:12;98172.84;;;9.44;61.80
20350;BME280;10332;50.208;18.988;2023-05-10T02:32:42;98168.94;;;9.37;61.78
20350;BME280;10332;50.208;18.988;2023-05-10T02:35:11;98168.75;;;9.40;61.69
20350;BME280;10332;50.208;18.988;2023-05-10T02:37:41;98170.81;;;9.35;61.49
20350;BME280;10332;50.208;18.988;2023-05-10T02:40:10;98167.00;;;9.26;61.96
20350;BME280;10332;50.208;18.988;2023-05-10T02:42:41;98165.88;;;9.30;61.81
20350;BME280;10332;50.208;18.988;2023-05-10T02:45:14;98173.88;;;9.27;62.13
20350;BME280;10332;50.208;18.988;2023-05-10T02:47:42;98166.22;;;9.24;62.18
20350;BME280;10332;50.208;18.988;2023-05-10T02:50:11;98162.63;;;9.13;62.71
20350;BME280;10332;50.208;18.988;2023-05-10T02:52:51;98168.75;;;9.12;62.89
20350;BME280;10332;50.208;18.988;2023-05-10T02:55:32;98163.09;;;9.19;62.52
20350;BME280;10332;50.208;18.988;2023-05-10T02:58:02;98172.94;;;9.28;62.38
20350;BME280;10332;50.208;18.988;2023-05-10T03:00:30;98172.56;;;9.20;62.59
20350;BME280;10332;50.208;18.988;2023-05-10T03:02:58;98171.66;;;9.21;62.88
20350;BME280;10332;50.208;18.988;2023-05-10T03:05:27;98176.69;;;9.10;62.89
20350;BME280;10332;50.208;18.988;2023-05-10T03:07:55;98179.09;;;9.13;62.94
20350;BME280;10332;50.208;18.988;2023-05-10T03:10:28;98178.72;;;9.05;63.40
20350;BME280;10332;50.208;18.988;2023-05-10T03:13:21;98182.06;;;9.07;63.20
20350;BME280;10332;50.208;18.988;2023-05-10T03:15:59;98178.34;;;8.97;63.57
20350;BME280;10332;50.208;18.988;2023-05-10T03:18:42;98174.63;;;9.15;63.13
20350;BME280;10332;50.208;18.988;2023-05-10T03:21:13;98180.38;;;9.34;62.83
20350;BME280;10332;50.208;18.988;2023-05-10T03:24:07;98173.41;;;9.35;62.84
20350;BME280;10332;50.208;18.988;2023-05-10T03:26:36;98172.94;;;9.28;62.95
20350;BME280;10332;50.208;18.988;2023-05-10T03:29:06;98175.91;;;9.22;62.80
20350;BME280;10332;50.208;18.988;2023-05-10T03:31:33;98177.97;;;9.31;63.22
20350;BME280;10332;50.208;18.988;2023-05-10T03:34:01;98179.19;;;9.26;62.96
20350;BME280;10332;50.208;18.988;2023-05-10T03:36:28;98177.50;;;9.25;63.64
20350;BME280;10332;50.208;18.988;2023-05-10T03:38:56;98179.19;;;9.26;63.18
20350;BME280;10332;50.208;18.988;2023-05-10T03:41:23;98163.56;;;9.26;63.46
20350;BME280;10332;50.208;18.988;2023-05-10T03:43:52;98160.84;;;9.27;63.32
20350;BME280;10332;50.208;18.988;2023-05-10T03:46:19;98162.63;;;9.27;63.43
20350;BME280;10332;50.208;18.988;2023-05-10T03:48:47;98161.28;;;9.34;63.32
20350;BME280;10332;50.208;18.988;2023-05-10T03:51:15;98155.34;;;9.32;63.24
20350;BME280;10332;50.208;18.988;2023-05-10T03:53:42;98162.13;;;9.34;63.09
20350;BME280;10332;50.208;18.988;2023-05-10T03:56:09;98162.22;;;9.33;63.16
20350;BME280;10332;50.208;18.988;2023-05-10T03:58:37;98165.88;;;9.30;63.32
20350;BME280;10332;50.208;18.988;2023-05-10T04:01:04;98164.66;;;9.36;63.17
20350;BME280;10332;50.208;18.988;2023-05-10T04:03:32;98166.44;;;9.35;63.02
20350;BME280;10332;50.208;18.988;2023-05-10T04:06:01;98168.09;;;9.36;62.93
20350;BME280;10332;50.208;18.988;2023-05-10T04:08:29;98163.06;;;9.48;62.86
20350;BME280;10332;50.208;18.988;2023-05-10T04:11:11;98167.78;;;9.55;62.69
20350;BME280;10332;50.208;18.988;2023-05-10T04:13:40;98165.91;;;9.57;62.47
20350;BME280;10332;50.208;18.988;2023-05-10T04:16:07;98168.25;;;9.62;62.44
20350;BME280;10332;50.208;18.988;2023-05-10T04:18:35;98165.66;;;9.62;62.65
20350;BME280;10332;50.208;18.988;2023-05-10T04:21:02;98168.97;;;9.64;62.41
20350;BME280;10332;50.208;18.988;2023-05-10T04:23:31;98167.94;;;9.66;62.28
20350;BME280;10332;50.208;18.988;2023-05-10T04:26:02;98169.22;;;9.74;62.03
20350;BME280;10332;50.208;18.988;2023-05-10T04:28:29;98171.00;;;9.73;62.01
20350;BME280;10332;50.208;18.988;2023-05-10T04:31:08;98164.97;;;9.73;62.20
20350;BME280;10332;50.208;18.988;2023-05-10T04:33:37;98171.16;;;9.84;61.68
20350;BME280;10332;50.208;18.988;2023-05-10T04:36:05;98166.38;;;9.91;61.53
20350;BME280;10332;50.208;18.988;2023-05-10T04:38:33;98166.06;;;9.95;61.69
20350;BME280;10332;50.208;18.988;2023-05-10T04:41:08;98169.03;;;10.04;61.25
20350;BME280;10332;50.208;18.988;2023-05-10T04:43:37;98168.44;;;10.13;61.18
20350;BME280;10332;50.208;18.988;2023-05-10T04:46:05;98176.72;;;10.19;60.73
20350;BME280;10332;50.208;18.988;2023-05-10T04:48:34;98173.41;;;10.30;60.15
20350;BME280;10332;50.208;18.988;2023-05-10T04:51:02;98178.03;;;10.39;59.92
20350;BME280;10332;50.208;18.988;2023-05-10T04:53:31;98172.72;;;10.41;59.61
20350;BME280;10332;50.208;18.988;2023-05-10T04:55:59;98171.47;;;10.46;59.67
20350;BME280;10332;50.208;18.988;2023-05-10T04:58:27;98179.31;;;10.46;58.81
20350;BME280;10332;50.208;18.988;2023-05-10T05:00:54;98165.41;;;10.46;59.06
20350;BME280;10332;50.208;18.988;2023-05-10T05:03:22;98160.09;;;10.47;59.29
20350;BME280;10332;50.208;18.988;2023-05-10T05:05:49;98168.69;;;10.62;58.70
20350;BME280;10332;50.208;18.988;2023-05-10T05:08:17;98166.28;;;10.72;58.25
20350;BME280;10332;50.208;18.988;2023-05-10T05:10:44;98165.25;;;10.74;58.06
20350;BME280;10332;50.208;18.988;2023-05-10T05:13:14;98165.34;;;10.73;58.17
20350;BME280;10332;50.208;18.988;2023-05-10T05:15:42;98157.72;;;10.83;57.77
20350;BME280;10332;50.208;18.988;2023-05-10T05:18:09;98163.38;;;10.89;57.73
20350;BME280;10332;50.208;18.988;2023-05-10T05:20:37;98163.69;;;10.97;57.81
20350;BME280;10332;50.208;18.988;2023-05-10T05:23:05;98156.78;;;10.96;57.73
20350;BME280;10332;50.208;18.988;2023-05-10T05:25:32;98166.81;;;11.02;57.69
20350;BME280;10332;50.208;18.988;2023-05-10T05:28:00;98157.19;;;11.03;57.76
20350;BME280;10332;50.208;18.988;2023-05-10T05:30:28;98156.25;;;11.17;57.64
20350;BME280;10332;50.208;18.988;2023-05-10T05:32:56;98158.41;;;11.23;57.34
20350;BME280;10332;50.208;18.988;2023-05-10T05:35:24;98156.94;;;11.31;57.39
20350;BME280;10332;50.208;18.988;2023-05-10T05:37:51;98166.38;;;11.34;57.39
20350;BME280;10332;50.208;18.988;2023-05-10T05:40:19;98163.63;;;11.35;57.10
20350;BME280;10332;50.208;18.988;2023-05-10T05:42:47;98160.50;;;11.43;56.69
20350;BME280;10332;50.208;18.988;2023-05-10T05:45:16;98161.28;;;11.56;55.80
20350;BME280;10332;50.208;18.988;2023-05-10T05:47:44;98167.63;;;11.65;56.24
20350;BME280;10332;50.208;18.988;2023-05-10T05:50:14;98161.34;;;11.68;56.50
20350;BME280;10332;50.208;18.988;2023-05-10T05:52:41;98161.63;;;11.76;55.95
20350;BME280;10332;50.208;18.988;2023-05-10T05:55:09;98167.56;;;11.90;55.95
20350;BME280;10332;50.208;18.988;2023-05-10T05:57:37;98167.47;;;11.92;55.52
20350;BME280;10332;50.208;18.988;2023-05-10T06:00:05;98165.47;;;11.96;55.78
20350;BME280;10332;50.208;18.988;2023-05-10T06:02:33;98174.50;;;12.15;54.18
20350;BME280;10332;50.208;18.988;2023-05-10T06:05:01;98159.38;;;12.19;54.12
20350;BME280;10332;50.208;18.988;2023-05-10T06:07:28;98162.72;;;12.21;54.05
20350;BME280;10332;50.208;18.988;2023-05-10T06:09:56;98158.69;;;12.28;53.49
20350;BME280;10332;50.208;18.988;2023-05-10T06:12:24;98164.59;;;12.43;53.68
20350;BME280;10332;50.208;18.988;2023-05-10T06:14:51;98161.88;;;12.56;53.09
20350;BME280;10332;50.208;18.988;2023-05-10T06:17:19;98167.50;;;12.62;52.40
20350;BME280;10332;50.208;18.988;2023-05-10T06:19:46;98163.63;;;12.90;52.51
20350;BME280;10332;50.208;18.988;2023-05-10T06:22:14;98163.38;;;12.93;51.51
20350;BME280;10332;50.208;18.988;2023-05-10T06:24:41;98164.38;;;13.03;51.51
20350;BME280;10332;50.208;18.988;2023-05-10T06:27:09;98165.59;;;13.22;50.68
20350;BME280;10332;50.208;18.988;2023-05-10T06:29:36;98173.06;;;13.04;50.56
20350;BME280;10332;50.208;18.988;2023-05-10T06:32:04;98170.81;;;13.44;51.74
20350;BME280;10332;50.208;18.988;2023-05-10T06:34:31;98166.88;;;13.61;51.02
20350;BME280;10332;50.208;18.988;2023-05-10T06:36:59;98166.72;;;13.74;51.18
20350;BME280;10332;50.208;18.988;2023-05-10T06:39:28;98164.41;;;13.91;48.92
20350;BME280;10332;50.208;18.988;2023-05-10T06:41:56;98162.13;;;13.98;48.20
20350;BME280;10332;50.208;18.988;2023-05-10T06:44:23;98162.00;;;14.00;47.89
20350;BME280;10332;50.208;18.988;2023-05-10T06:46:51;98161.25;;;14.09;47.56
20350;BME280;10332;50.208;18.988;2023-05-10T06:49:20;98164.16;;;14.27;47.35
20350;BME280;10332;50.208;18.988;2023-05-10T06:51:48;98154.00;;;14.33;46.78
20350;BME280;10332;50.208;18.988;2023-05-10T06:54:15;98157.28;;;14.46;46.02
20350;BME280;10332;50.208;18.988;2023-05-10T06:56:43;98151.09;;;14.47;46.21
20350;BME280;10332;50.208;18.988;2023-05-10T06:59:10;98152.19;;;14.66;46.05
20350;BME280;10332;50.208;18.988;2023-05-10T07:01:38;98154.06;;;14.75;45.28
20350;BME280;10332;50.208;18.988;2023-05-10T07:04:05;98161.25;;;14.83;45.17
20350;BME280;10332;50.208;18.988;2023-05-10T07:06:34;98153.63;;;15.00;45.01
20350;BME280;10332;50.208;18.988;2023-05-10T07:09:03;98149.00;;;15.14;45.30
20350;BME280;10332;50.208;18.988;2023-05-10T07:11:30;98150.31;;;15.29;44.48
20350;BME280;10332;50.208;18.988;2023-05-10T07:13:58;98155.34;;;15.51;45.00
20350;BME280;10332;50.208;18.988;2023-05-10T07:16:25;98149.06;;;15.64;44.44
20350;BME280;10332;50.208;18.988;2023-05-10T07:18:53;98148.94;;;15.75;44.50
20350;BME280;10332;50.208;18.988;2023-05-10T07:21:21;98144.00;;;15.91;44.26
20350;BME280;10332;50.208;18.988;2023-05-10T07:23:51;98147.59;;;16.00;43.18
20350;BME280;10332;50.208;18.988;2023-05-10T07:26:21;98140.78;;;16.07;43.13
20350;BME280;10332;50.208;18.988;2023-05-10T07:28:49;98151.34;;;16.16;42.69
20350;BME280;10332;50.208;18.988;2023-05-10T07:31:16;98142.19;;;16.30;42.36
20350;BME280;10332;50.208;18.988;2023-05-10T07:33:44;98144.00;;;16.39;42.31
20350;BME280;10332;50.208;18.988;2023-05-10T07:36:20;98132.91;;;16.45;41.81
20350;BME280;10332;50.208;18.988;2023-05-10T07:38:48;98137.47;;;16.63;41.42
20350;BME280;10332;50.208;18.988;2023-05-10T07:41:16;98140.78;;;16.65;40.80
20350;BME280;10332;50.208;18.988;2023-05-10T07:43:45;98128.28;;;16.77;40.21
20350;BME280;10332;50.208;18.988;2023-05-10T07:46:13;98140.75;;;16.94;39.03
20350;BME280;10332;50.208;18.988;2023-05-10T07:48:41;98124.13;;;16.84;38.47
20350;BME280;10332;50.208;18.988;2023-05-10T07:51:08;98130.72;;;16.97;38.45
20350;BME280;10332;50.208;18.988;2023-05-10T07:53:37;98130.56;;;17.09;36.94
20350;BME280;10332;50.208;18.988;2023-05-10T07:56:23;98134.81;;;17.19;36.75
20350;BME280;10332;50.208;18.988;2023-05-10T07:58:52;98132.16;;;17.29;36.60
20350;BME280;10332;50.208;18.988;2023-05-10T08:01:20;98138.28;;;17.20;35.75
20350;BME280;10332;50.208;18.988;2023-05-10T08:03:47;98131.47;;;17.27;35.71
20350;BME280;10332;50.208;18.988;2023-05-10T08:06:17;98122.66;;;17.36;36.31
20350;BME280;10332;50.208;18.988;2023-05-10T08:08:47;98125.16;;;17.38;35.80
20350;BME280;10332;50.208;18.988;2023-05-10T08:11:17;98130.91;;;17.51;35.35
20350;BME280;10332;50.208;18.988;2023-05-10T08:13:45;98133.13;;;17.55;34.79
20350;BME280;10332;50.208;18.988;2023-05-10T08:16:13;98114.97;;;17.70;35.17
20350;BME280;10332;50.208;18.988;2023-05-10T08:18:41;98125.50;;;17.80;35.12
20350;BME280;10332;50.208;18.988;2023-05-10T08:21:09;98131.16;;;17.85;34.25
20350;BME280;10332;50.208;18.988;2023-05-10T08:23:38;98130.41;;;17.93;34.64
20350;BME280;10332;50.208;18.988;2023-05-10T08:26:06;98139.94;;;18.21;34.10
20350;BME280;10332;50.208;18.988;2023-05-10T08:28:33;98131.63;;;18.34;35.02
20350;BME280;10332;50.208;18.988;2023-05-10T08:31:01;98127.09;;;18.44;35.48
20350;BME280;10332;50.208;18.988;2023-05-10T08:33:29;98131.97;;;18.57;36.14
20350;BME280;10332;50.208;18.988;2023-05-10T08:35:56;98120.63;;;18.64;35.62
20350;BME280;10332;50.208;18.988;2023-05-10T08:38:24;98123.41;;;18.81;36.15
20350;BME280;10332;50.208;18.988;2023-05-10T08:40:55;98118.19;;;18.89;35.49
20350;BME280;10332;50.208;18.988;2023-05-10T08:43:28;98123.88;;;19.02;36.07
20350;BME280;10332;50.208;18.988;2023-05-10T08:46:01;98124.78;;;19.19;36.16
20350;BME280;10332;50.208;18.988;2023-05-10T08:48:34;98113.56;;;19.25;34.29
20350;BME280;10332;50.208;18.988;2023-05-10T08:51:03;98117.44;;;19.47;36.26
20350;BME280;10332;50.208;18.988;2023-05-10T08:53:33;98108.81;;;19.37;34.79
20350;BME280;10332;50.208;18.988;2023-05-10T08:56:04;98131.81;;;19.36;35.07
20350;BME280;10332;50.208;18.988;2023-05-10T08:58:32;98125.09;;;19.16;34.24
20350;BME280;10332;50.208;18.988;2023-05-10T09:01:01;98129.84;;;19.38;34.79
20350;BME280;10332;50.208;18.988;2023-05-10T09:03:29;98116.13;;;19.43;34.56
20350;BME280;10332;50.208;18.988;2023-05-10T09:05:57;98123.22;;;19.34;33.82
20350;BME280;10332;50.208;18.988;2023-05-10T09:08:26;98121.38;;;19.77;34.34
20350;BME280;10332;50.208;18.988;2023-05-10T09:10:55;98127.69;;;19.84;33.62
20350;BME280;10332;50.208;18.988;2023-05-10T09:13:23;98115.97;;;20.03;33.53
20350;BME280;10332;50.208;18.988;2023-05-10T09:15:52;98123.63;;;20.14;33.04
20350;BME280;10332;50.208;18.988;2023-05-10T09:18:20;98126.09;;;20.07;33.51
20350;BME280;10332;50.208;18.988;2023-05-10T09:20:48;98131.59;;;20.55;33.83
20350;BME280;10332;50.208;18.988;2023-05-10T09:23:16;98127.34;;;21.65;31.43
20350;BME280;10332;50.208;18.988;2023-05-10T09:25:44;98124.84;;;27.70;25.75
20350;BME280;10332;50.208;18.988;2023-05-10T09:28:12;98133.25;;;33.55;19.88
20350;BME280;10332;50.208;18.988;2023-05-10T09:30:40;98142.53;;;38.32;16.61
20350;BME280;10332;50.208;18.988;2023-05-10T09:33:07;98152.78;;;40.79;14.25
20350;BME280;10332;50.208;18.988;2023-05-10T09:35:35;98150.94;;;44.35;12.64
20350;BME280;10332;50.208;18.988;2023-05-10T09:38:04;98146.06;;;47.39;11.82
20350;BME280;10332;50.208;18.988;2023-05-10T09:40:32;98156.84;;;46.75;10.23
20350;BME280;10332;50.208;18.988;2023-05-10T09:43:04;98152.66;;;51.03;9.20
20350;BME280;10332;50.208;18.988;2023-05-10T09:45:35;98155.72;;;53.75;7.92
20350;BME280;10332;50.208;18.988;2023-05-10T09:48:05;98150.47;;;53.67;7.73
20350;BME280;10332;50.208;18.988;2023-05-10T09:50:34;98149.19;;;54.26;7.26
20350;BME280;10332;50.208;18.988;2023-05-10T09:53:03;98154.47;;;52.13;7.36
20350;BME280;10332;50.208;18.988;2023-05-10T09:55:42;98154.59;;;54.78;7.32
20350;BME280;10332;50.208;18.988;2023-05-10T09:58:13;98150.06;;;51.36;8.07
20350;BME280;10332;50.208;18.988;2023-05-10T10:00:44;98155.88;;;55.30;7.45
20350;BME280;10332;50.208;18.988;2023-05-10T10:03:22;98143.00;;;55.79;6.92
20350;BME280;10332;50.208;18.988;2023-05-10T10:05:50;98130.22;;;56.73;6.32
20350;BME280;10332;50.208;18.988;2023-05-10T10:08:18;98132.00;;;57.04;6.37
20350;BME280;10332;50.208;18.988;2023-05-10T10:10:47;98123.66;;;54.31;6.53
20350;BME280;10332;50.208;18.988;2023-05-10T10:13:14;98128.97;;;52.82;7.32
20350;BME280;10332;50.208;18.988;2023-05-10T10:15:43;98121.72;;;53.66;6.93
20350;BME280;10332;50.208;18.988;2023-05-10T10:18:19;98112.00;;;52.61;7.72
20350;BME280;10332;50.208;18.988;2023-05-10T10:20:51;98113.19;;;51.96;7.45
20350;BME280;10332;50.208;18.988;2023-05-10T10:23:18;98115.81;;;54.90;6.55
20350;BME280;10332;50.208;18.988;2023-05-10T10:25:47;98100.16;;;53.67;6.67
20350;BME280;10332;50.208;18.988;2023-05-10T10:29:52;98110.25;;;55.15;6.52
20350;BME280;10332;50.208;18.988;2023-05-10T10:34:48;98080.22;;;48.97;8.82
20350;BME280;10332;50.208;18.988;2023-05-10T10:37:17;98096.69;;;52.47;7.76
20350;BME280;10332;50.208;18.988;2023-05-10T10:39:44;98084.84;;;53.46;7.28
20350;BME280;10332;50.208;18.988;2023-05-10T10:42:12;98080.50;;;54.36;6.47
20350;BME280;10332;50.208;18.988;2023-05-10T10:44:39;98077.22;;;51.08;7.38
20350;BME280;10332;50.208;18.988;2023-05-10T10:55:07;98052.59;;;36.92;13.82
20350;BME280;10332;50.208;18.988;2023-05-10T10:57:56;98047.66;;;34.35;15.30
20350;BME280;10332;50.208;18.988;2023-05-10T11:00:36;98039.44;;;33.71;16.25
20350;BME280;10332;50.208;18.988;2023-05-10T11:03:09;98045.41;;;33.46;16.28
20350;BME280;10332;50.208;18.988;2023-05-10T11:05:57;98047.13;;;32.41;17.44
20350;BME280;10332;50.208;18.988;2023-05-10T11:08:44;98043.06;;;31.94;17.77
20350;BME280;10332;50.208;18.988;2023-05-10T11:11:14;98039.84;;;31.40;18.48
20350;BME280;10332;50.208;18.988;2023-05-10T11:13:45;98043.88;;;31.14;19.19
20350;BME280;10332;50.208;18.988;2023-05-10T11:19:05;98029.69;;;28.79;20.54
20350;BME280;10332;50.208;18.988;2023-05-10T11:24:33;98033.97;;;27.81;20.88
20350;BME280;10332;50.208;18.988;2023-05-10T11:27:00;98027.78;;;27.42;21.82
20350;BME280;10332;50.208;18.988;2023-05-10T11:29:28;98021.81;;;27.78;22.11
20350;BME280;10332;50.208;18.988;2023-05-10T11:31:59;98022.16;;;27.50;21.90
20350;BME280;10332;50.208;18.988;2023-05-10T11:34:32;98027.28;;;27.00;22.63
20350;BME280;10332;50.208;18.988;2023-05-10T11:37:02;98013.53;;;27.41;22.42
20350;BME280;10332;50.208;18.988;2023-05-10T11:39:31;98014.38;;;26.31;23.48
20350;BME280;10332;50.208;18.988;2023-05-10T11:42:00;98004.19;;;27.06;23.71
20350;BME280;10332;50.208;18.988;2023-05-10T11:44:31;97998.09;;;27.30;23.46
20350;BME280;10332;50.208;18.988;2023-05-10T11:47:02;98008.94;;;27.04;23.17
20350;BME280;10332;50.208;18.988;2023-05-10T11:49:30;98007.56;;;26.68;23.82
20350;BME280;10332;50.208;18.988;2023-05-10T11:52:08;98001.63;;;26.53;22.95
20350;BME280;10332;50.208;18.988;2023-05-10T11:54:36;98006.13;;;26.59;23.38
20350;BME280;10332;50.208;18.988;2023-05-10T11:57:04;98004.47;;;26.31;23.27
20350;BME280;10332;50.208;18.988;2023-05-10T11:59:31;98007.38;;;25.84;23.90
20350;BME280;10332;50.208;18.988;2023-05-10T12:01:59;98005.56;;;25.30;24.50
20350;BME280;10332;50.208;18.988;2023-05-10T12:04:27;98016.88;;;25.32;23.79
20350;BME280;10332;50.208;18.988;2023-05-10T12:06:56;98017.41;;;25.07;23.76
20350;BME280;10332;50.208;18.988;2023-05-10T12:09:24;98001.66;;;25.26;23.49
20350;BME280;10332;50.208;18.988;2023-05-10T12:12:08;98000.81;;;24.84;24.42
20350;BME280;10332;50.208;18.988;2023-05-10T12:14:37;98011.31;;;24.57;24.91
20350;BME280;10332;50.208;18.988;2023-05-10T12:17:04;98002.44;;;24.50;25.31
20350;BME280;10332;50.208;18.988;2023-05-10T12:19:39;98001.88;;;24.55;25.08
20350;BME280;10332;50.208;18.988;2023-05-10T12:22:07;97993.91;;;24.33;25.59
20350;BME280;10332;50.208;18.988;2023-05-10T12:24:37;98005.69;;;24.74;25.34
20350;BME280;10332;50.208;18.988;2023-05-10T12:27:09;97999.22;;;24.96;25.14
20350;BME280;10332;50.208;18.988;2023-05-10T12:29:41;98003.47;;;24.84;25.02
20350;BME280;10332;50.208;18.988;2023-05-10T12:32:11;97993.03;;;24.54;25.27
20350;BME280;10332;50.208;18.988;2023-05-10T12:34:39;97995.03;;;24.80;25.50
20350;BME280;10332;50.208;18.988;2023-05-10T12:37:07;97994.78;;;25.10;25.09
20350;BME280;10332;50.208;18.988;2023-05-10T12:39:44;97994.59;;;25.11;25.11
20350;BME280;10332;50.208;18.988;2023-05-10T12:42:13;97998.00;;;24.99;24.70
20350;BME280;10332;50.208;18.988;2023-05-10T12:44:42;97990.38;;;25.50;24.71
20350;BME280;10332;50.208;18.988;2023-05-10T12:47:10;97982.16;;;25.45;24.95
20350;BME280;10332;50.208;18.988;2023-05-10T12:49:38;97980.50;;;25.37;24.97
20350;BME280;10332;50.208;18.988;2023-05-10T12:52:05;97982.31;;;24.89;24.78
20350;BME280;10332;50.208;18.988;2023-05-10T12:54:33;97989.88;;;25.13;25.48
20350;BME280;10332;50.208;18.988;2023-05-10T12:57:00;97983.13;;;25.31;24.75
20350;BME280;10332;50.208;18.988;2023-05-10T12:59:28;97972.03;;;24.86;26.40
20350;BME280;10332;50.208;18.988;2023-05-10T13:01:57;97973.06;;;25.26;25.17
20350;BME280;10332;50.208;18.988;2023-05-10T13:04:25;97981.91;;;25.27;24.38
20350;BME280;10332;50.208;18.988;2023-05-10T13:06:53;97977.53;;;25.12;24.67
20350;BME280;10332;50.208;18.988;2023-05-10T13:09:26;97978.19;;;24.45;25.92
20350;BME280;10332;50.208;18.988;2023-05-10T13:11:55;97981.50;;;24.26;26.26
20350;BME280;10332;50.208;18.988;2023-05-10T13:14:24;97967.97;;;24.90;24.85
20350;BME280;10332;50.208;18.988;2023-05-10T13:16:51;97967.88;;;25.11;25.06
20350;BME280;10332;50.208;18.988;2023-05-10T13:19:20;97969.50;;;25.12;25.62
20350;BME280;10332;50.208;18.988;2023-05-10T13:21:47;97958.47;;;24.87;25.40
20350;BME280;10332;50.208;18.988;2023-05-10T13:24:17;97960.47;;;24.72;25.34
20350;BME280;10332;50.208;18.988;2023-05-10T13:26:45;97963.84;;;24.53;25.79
20350;BME280;10332;50.208;18.988;2023-05-10T13:29:13;97957.50;;;24.54;25.63
20350;BME280;10332;50.208;18.988;2023-05-10T13:31:45;97956.91;;;24.58;25.85
20350;BME280;10332;50.208;18.988;2023-05-10T13:34:14;97962.75;;;24.41;25.76
20350;BME280;10332;50.208;18.988;2023-05-10T13:36:41;97959.63;;;23.45;26.78
20350;BME280;10332;50.208;18.988;2023-05-10T13:39:09;97965.19;;;23.86;26.45